createdAt,value
2022-11-22T00:00:31.211Z,-0.31
2022-11-22T00:02:58.457Z,-0.21
2022-11-22T00:05:25.907Z,-0.13
2022-11-22T00:07:53.061Z,-0.09
2022-11-22T00:10:20.229Z,-0.04
2022-11-22T00:12:47.269Z,-0.02
2022-11-22T00:15:14.350Z,-0.02
2022-11-22T00:17:41.378Z,0.02
2022-11-22T00:20:10.637Z,-0.05
2022-11-22T00:22:44.019Z,-0.05
2022-11-22T00:25:12.503Z,-0.06
2022-11-22T00:27:40.169Z,-0.13
2022-11-22T00:30:08.013Z,-0.22
2022-11-22T00:32:35.147Z,-0.32
2022-11-22T00:35:02.717Z,-0.37
2022-11-22T00:37:29.804Z,-0.44
2022-11-22T00:39:56.909Z,-0.48
2022-11-22T00:42:23.995Z,-0.56
2022-11-22T00:44:51.112Z,-0.65
2022-11-22T00:47:18.161Z,-0.67
2022-11-22T00:49:45.206Z,-0.72
2022-11-22T00:52:13.395Z,-0.74
2022-11-22T00:54:40.760Z,-0.71
2022-11-22T00:57:07.818Z,-0.75
2022-11-22T00:59:34.963Z,-0.73
2022-11-22T01:02:02.086Z,-0.72
2022-11-22T01:04:29.620Z,-0.72
2022-11-22T01:06:57.190Z,-0.72
2022-11-22T01:09:25.214Z,-0.70
2022-11-22T01:11:53.087Z,-0.71
2022-11-22T01:14:20.448Z,-0.72
2022-11-22T01:16:48.291Z,-0.73
2022-11-22T01:19:15.554Z,-0.71
2022-11-22T01:21:42.631Z,-0.71
2022-11-22T01:24:10.090Z,-0.70
2022-11-22T01:26:37.476Z,-0.61
2022-11-22T01:29:05.017Z,-0.49
2022-11-22T01:31:32.363Z,-0.42
2022-11-22T01:33:59.678Z,-0.42
2022-11-22T01:36:27.721Z,-0.44
2022-11-22T01:38:55.250Z,-0.38
2022-11-22T01:41:22.654Z,-0.28
2022-11-22T01:43:49.864Z,-0.09
2022-11-22T01:46:29.009Z,0.12
2022-11-22T01:49:01.964Z,0.44
2022-11-22T01:51:44.517Z,0.87
2022-11-22T01:54:14.168Z,1.00
2022-11-22T01:56:42.763Z,1.15
2022-11-22T01:59:17.236Z,1.21
2022-11-22T02:01:44.522Z,1.18
2022-11-22T02:04:14.444Z,1.11
2022-11-22T02:07:15.669Z,1.05
2022-11-22T02:09:43.468Z,1.13
2022-11-22T02:12:12.187Z,1.19
2022-11-22T02:14:40.419Z,1.23
2022-11-22T02:17:07.856Z,1.26
2022-11-22T02:19:44.242Z,1.18
2022-11-22T02:22:34.186Z,1.05
2022-11-22T02:25:32.247Z,0.95
2022-11-22T02:27:59.322Z,0.91
2022-11-22T02:30:26.463Z,0.89
2022-11-22T02:32:53.599Z,0.94
2022-11-22T02:35:26.135Z,0.88
2022-11-22T02:38:00.235Z,0.89
2022-11-22T02:40:29.940Z,0.84
2022-11-22T02:43:01.938Z,0.81
2022-11-22T02:45:29.532Z,0.86
2022-11-22T02:48:12.712Z,0.93
2022-11-22T02:50:40.353Z,0.97
2022-11-22T02:53:08.076Z,0.95
2022-11-22T02:55:35.494Z,0.94
2022-11-22T02:58:03.118Z,0.88
2022-11-22T03:00:30.423Z,0.84
2022-11-22T03:02:57.503Z,0.93
2022-11-22T03:05:24.639Z,1.04
2022-11-22T03:07:51.720Z,1.06
2022-11-22T03:10:18.883Z,1.04
2022-11-22T03:12:46.001Z,0.98
2022-11-22T03:15:13.130Z,0.98
2022-11-22T03:17:40.161Z,0.96
2022-11-22T03:20:07.949Z,1.04
2022-11-22T03:22:35.220Z,1.10
2022-11-22T03:25:02.292Z,1.10
2022-11-22T03:27:29.519Z,1.13
2022-11-22T03:29:56.658Z,1.32
2022-11-22T03:32:23.767Z,1.46
2022-11-22T03:34:50.846Z,1.50
2022-11-22T03:37:17.920Z,1.59
2022-11-22T03:39:45.182Z,1.74
2022-11-22T03:42:13.655Z,1.77
2022-11-22T03:44:43.854Z,1.78
2022-11-22T03:47:10.923Z,1.83
2022-11-22T03:49:37.957Z,1.84
2022-11-22T03:52:05.533Z,1.86
2022-11-22T03:54:32.645Z,1.87
2022-11-22T03:57:00.266Z,1.88
2022-11-22T03:59:28.176Z,1.89
2022-11-22T04:01:55.734Z,1.90
2022-11-22T04:04:23.016Z,1.98
2022-11-22T04:06:50.127Z,1.96
2022-11-22T04:09:17.203Z,2.01
2022-11-22T04:11:44.282Z,2.03
2022-11-22T04:14:31.016Z,2.03
2022-11-22T04:16:58.107Z,2.04
2022-11-22T04:19:25.189Z,2.03
2022-11-22T04:21:52.249Z,2.02
2022-11-22T04:24:37.962Z,2.01
2022-11-22T04:27:05.051Z,2.00
2022-11-22T04:29:32.377Z,1.98
2022-11-22T04:32:18.092Z,1.95
2022-11-22T04:34:45.153Z,1.97
2022-11-22T04:37:12.215Z,1.99
2022-11-22T04:39:39.279Z,1.97
2022-11-22T04:42:24.613Z,1.99
2022-11-22T04:44:51.700Z,2.04
2022-11-22T04:47:37.988Z,2.05
2022-11-22T04:50:26.277Z,2.05
2022-11-22T04:52:54.943Z,2.08
2022-11-22T04:55:22.247Z,2.13
2022-11-22T04:57:52.100Z,2.15
2022-11-22T05:00:23.192Z,2.19
2022-11-22T05:02:50.234Z,2.14
2022-11-22T05:05:17.398Z,2.12
2022-11-22T05:07:44.597Z,2.11
2022-11-22T05:10:11.974Z,2.10
2022-11-22T05:12:40.936Z,2.13
2022-11-22T05:15:09.825Z,2.13
2022-11-22T05:17:38.112Z,2.13
2022-11-22T05:20:06.562Z,2.10
2022-11-22T05:22:52.290Z,2.08
2022-11-22T05:25:24.138Z,2.08
2022-11-22T05:27:54.187Z,2.08
2022-11-22T05:30:21.454Z,2.11
2022-11-22T05:32:48.497Z,2.10
2022-11-22T05:35:15.601Z,2.13
2022-11-22T05:37:42.723Z,2.16
2022-11-22T05:40:10.587Z,2.16
2022-11-22T05:42:37.747Z,2.13
2022-11-22T05:45:05.268Z,2.08
2022-11-22T05:47:36.269Z,2.03
2022-11-22T05:50:04.497Z,2.02
2022-11-22T05:52:31.577Z,1.95
2022-11-22T05:54:58.651Z,1.90
2022-11-22T05:57:25.858Z,1.87
2022-11-22T05:59:53.143Z,1.91
2022-11-22T06:02:20.918Z,1.96
2022-11-22T06:04:48.442Z,1.99
2022-11-22T06:07:15.687Z,1.97
2022-11-22T06:09:42.810Z,1.98
2022-11-22T06:12:10.257Z,1.97
2022-11-22T06:14:42.964Z,1.99
2022-11-22T06:17:10.536Z,1.96
2022-11-22T06:19:37.672Z,1.94
2022-11-22T06:22:04.747Z,1.94
2022-11-22T06:24:31.840Z,1.95
2022-11-22T06:26:58.877Z,1.93
2022-11-22T06:29:26.063Z,1.92
2022-11-22T06:31:53.614Z,1.91
2022-11-22T06:34:20.701Z,1.92
2022-11-22T06:36:47.745Z,1.93
2022-11-22T06:39:14.804Z,1.96
2022-11-22T06:41:41.874Z,1.98
2022-11-22T06:44:09.755Z,2.00
2022-11-22T06:46:37.528Z,1.93
2022-11-22T06:49:04.856Z,1.90
2022-11-22T06:51:32.584Z,1.87
2022-11-22T06:54:00.082Z,1.81
2022-11-22T06:56:29.987Z,1.78
2022-11-22T06:58:57.511Z,1.76
2022-11-22T07:01:27.747Z,1.74
2022-11-22T07:03:58.144Z,1.72
2022-11-22T07:06:27.457Z,1.71
2022-11-22T07:08:54.769Z,1.68
2022-11-22T07:11:24.189Z,1.69
2022-11-22T07:13:51.578Z,1.67
2022-11-22T07:16:20.650Z,1.68
2022-11-22T07:18:48.708Z,1.69
2022-11-22T07:21:20.814Z,1.69
2022-11-22T07:23:50.505Z,1.69
2022-11-22T07:26:19.443Z,1.67
2022-11-22T07:28:47.019Z,1.66
2022-11-22T07:31:15.913Z,1.67
2022-11-22T07:33:43.823Z,1.69
2022-11-22T07:36:13.165Z,1.67
2022-11-22T07:38:40.260Z,1.66
2022-11-22T07:41:08.285Z,1.66
2022-11-22T07:43:38.460Z,1.66
2022-11-22T07:46:17.383Z,1.62
2022-11-22T07:48:44.608Z,1.62
2022-11-22T07:51:11.715Z,1.62
2022-11-22T07:53:38.905Z,1.61
2022-11-22T07:56:07.017Z,1.62
2022-11-22T07:58:35.027Z,1.62
2022-11-22T08:01:09.580Z,1.67
2022-11-22T08:03:37.823Z,1.71
2022-11-22T08:06:07.133Z,1.71
2022-11-22T08:08:34.991Z,1.75
2022-11-22T08:11:02.076Z,1.81
2022-11-22T08:13:29.549Z,1.84
2022-11-22T08:16:05.445Z,1.87
2022-11-22T08:18:34.610Z,1.91
2022-11-22T08:21:12.769Z,1.95
2022-11-22T08:23:40.949Z,1.98
2022-11-22T08:26:09.803Z,2.01
2022-11-22T08:28:36.978Z,2.02
2022-11-22T08:31:08.522Z,2.05
2022-11-22T08:33:35.692Z,2.07
2022-11-22T08:36:02.764Z,2.12
2022-11-22T08:38:30.083Z,2.18
2022-11-22T08:40:57.351Z,2.21
2022-11-22T08:43:24.418Z,2.25
2022-11-22T08:45:57.291Z,2.29
2022-11-22T08:48:26.128Z,2.32
2022-11-22T08:50:55.047Z,2.36
2022-11-22T08:53:22.445Z,2.41
2022-11-22T08:55:49.622Z,2.47
2022-11-22T08:58:16.768Z,2.50
2022-11-22T09:00:44.310Z,2.56
2022-11-22T09:03:11.453Z,2.59
2022-11-22T09:08:25.637Z,2.70
2022-11-22T09:10:52.868Z,2.76
2022-11-22T09:13:19.939Z,2.80
2022-11-22T09:15:47.009Z,2.86
2022-11-22T09:18:14.046Z,2.90
2022-11-22T09:20:41.099Z,2.97
2022-11-22T09:23:08.161Z,3.02
2022-11-22T09:25:35.310Z,3.04
2022-11-22T09:28:03.266Z,3.02
2022-11-22T09:30:30.880Z,3.05
2022-11-22T09:32:58.169Z,3.07
2022-11-22T09:35:25.292Z,3.09
2022-11-22T09:37:52.367Z,3.09
2022-11-22T09:40:19.560Z,3.13
2022-11-22T09:42:57.989Z,3.20
2022-11-22T09:45:38.746Z,3.20
2022-11-22T09:48:12.295Z,3.19
2022-11-22T09:50:58.145Z,3.21
2022-11-22T09:53:30.654Z,3.20
2022-11-22T09:55:59.834Z,3.20
2022-11-22T09:58:47.610Z,3.19
2022-11-22T10:01:18.598Z,3.21
2022-11-22T10:03:55.518Z,3.20
2022-11-22T10:06:35.012Z,3.23
2022-11-22T10:09:17.038Z,3.20
2022-11-22T10:12:05.580Z,3.18
2022-11-22T10:14:55.951Z,3.16
2022-11-22T10:17:47.473Z,3.15
2022-11-22T10:20:18.603Z,3.17
2022-11-22T10:22:46.054Z,3.18
2022-11-22T10:25:17.535Z,3.18
2022-11-22T10:27:48.841Z,3.17
2022-11-22T10:30:18.297Z,3.20
2022-11-22T10:33:06.812Z,3.18
2022-11-22T10:36:19.321Z,3.19
2022-11-22T10:39:02.162Z,3.18
2022-11-22T10:41:50.167Z,3.22
2022-11-22T10:44:34.383Z,3.23
2022-11-22T10:47:22.983Z,3.23
2022-11-22T10:50:01.388Z,3.25
2022-11-22T10:52:54.272Z,3.29
2022-11-22T10:55:46.121Z,3.29
2022-11-22T10:58:31.208Z,3.33
2022-11-22T11:01:20.577Z,3.38
2022-11-22T11:03:49.046Z,3.45
2022-11-22T11:06:43.734Z,3.53
2022-11-22T11:12:38.636Z,3.67
2022-11-22T11:15:14.861Z,3.78
2022-11-22T11:17:42.233Z,3.86
2022-11-22T11:20:23.008Z,3.93
2022-11-22T11:25:43.281Z,4.07
2022-11-22T11:28:17.731Z,4.13
2022-11-22T11:30:49.690Z,4.17
2022-11-22T11:33:26.170Z,4.24
2022-11-22T11:36:16.349Z,4.28
2022-11-22T11:38:43.313Z,4.36
2022-11-22T11:41:17.841Z,4.41
2022-11-22T11:43:45.513Z,4.42
2022-11-22T11:46:23.831Z,4.42
2022-11-22T11:48:52.873Z,4.44
2022-11-22T11:51:24.832Z,4.48
2022-11-22T11:53:56.457Z,4.50
2022-11-22T11:56:35.607Z,4.52
2022-11-22T11:59:11.318Z,4.55
2022-11-22T12:01:46.799Z,4.59
2022-11-22T12:04:21.476Z,4.61
2022-11-22T12:07:02.808Z,4.62
2022-11-22T12:09:36.066Z,4.63
2022-11-22T12:12:11.573Z,4.64
2022-11-22T12:15:09.150Z,4.62
2022-11-22T12:17:30.665Z,4.69
2022-11-22T12:20:11.960Z,4.71
2022-11-22T12:23:02.653Z,4.69
2022-11-22T12:25:35.959Z,4.68
2022-11-22T12:28:12.842Z,4.70
2022-11-22T12:30:41.463Z,4.74
2022-11-22T12:33:20.060Z,4.70
2022-11-22T12:35:48.811Z,4.60
2022-11-22T12:38:21.604Z,4.62
2022-11-22T12:40:51.828Z,4.57
2022-11-22T12:43:27.562Z,4.56
2022-11-22T12:46:05.993Z,4.53
2022-11-22T12:48:48.400Z,4.52
2022-11-22T12:51:30.957Z,4.47
2022-11-22T12:54:02.099Z,4.46
2022-11-22T12:56:46.987Z,4.47
2022-11-22T13:00:00.004Z,4.52
2022-11-22T13:02:32.423Z,4.50
2022-11-22T13:05:10.600Z,4.53
2022-11-22T13:08:08.998Z,4.57
2022-11-22T13:11:19.730Z,4.58
2022-11-22T13:13:49.921Z,4.60
2022-11-22T13:16:17.092Z,4.65
2022-11-22T13:18:48.313Z,4.66
2022-11-22T13:21:53.119Z,4.73
2022-11-22T13:24:30.858Z,4.75
2022-11-22T13:27:15.349Z,4.76
2022-11-22T13:29:43.508Z,4.77
2022-11-22T13:32:13.363Z,4.79
2022-11-22T13:34:42.569Z,4.83
2022-11-22T13:37:15.414Z,4.86
2022-11-22T13:39:46.211Z,4.86
2022-11-22T13:42:21.791Z,4.88
2022-11-22T13:44:56.255Z,4.95
2022-11-22T13:47:23.202Z,4.98
2022-11-22T13:49:51.396Z,5.02
2022-11-22T13:52:19.572Z,5.09
2022-11-22T13:54:46.684Z,5.15
2022-11-22T13:57:38.854Z,5.16
2022-11-22T14:00:15.047Z,5.12
2022-11-22T14:02:47.102Z,5.15
2022-11-22T14:05:40.974Z,5.13
2022-11-22T14:08:36.000Z,5.13
2022-11-22T14:11:28.443Z,5.16
2022-11-22T14:14:05.469Z,5.21
2022-11-22T14:16:59.198Z,5.24
2022-11-22T14:19:26.163Z,5.27
2022-11-22T14:22:07.167Z,5.30
2022-11-22T14:24:40.338Z,5.30
2022-11-22T14:27:27.247Z,5.26
2022-11-22T14:30:04.919Z,5.25
2022-11-22T14:32:48.861Z,5.22
2022-11-22T14:35:27.981Z,5.19
2022-11-22T14:37:58.296Z,5.19
2022-11-22T14:40:38.024Z,5.17
2022-11-22T14:43:11.124Z,5.14
2022-11-22T14:45:38.095Z,5.10
2022-11-22T14:48:14.654Z,5.09
2022-11-22T14:50:45.506Z,5.04
2022-11-22T14:53:20.053Z,5.03
2022-11-22T14:55:49.039Z,4.98
2022-11-22T14:58:23.878Z,4.93
2022-11-22T15:01:23.145Z,4.88
2022-11-22T15:09:17.242Z,4.90
2022-11-22T15:09:19.923Z,4.88
2022-11-22T15:10:30.762Z,4.86
2022-11-22T15:13:27.067Z,4.83
2022-11-22T15:59:25.250Z,3.94
2022-11-22T16:01:55.105Z,3.88
2022-11-22T16:04:26.218Z,3.89
2022-11-22T16:06:53.815Z,3.86
2022-11-22T16:09:43.515Z,3.90
2022-11-22T16:12:49.625Z,3.88
2022-11-22T16:15:37.145Z,3.86
2022-11-22T16:18:10.127Z,3.86
2022-11-22T16:20:39.183Z,3.74
2022-11-22T16:23:09.005Z,3.64
2022-11-22T16:25:38.718Z,3.57
2022-11-22T16:28:24.284Z,3.57
2022-11-22T16:30:53.772Z,3.48
2022-11-22T16:33:20.918Z,3.45
2022-11-22T16:35:55.434Z,3.41
2022-11-22T16:38:23.461Z,3.31
2022-11-22T16:40:51.226Z,3.24
2022-11-22T16:43:20.537Z,3.22
2022-11-22T16:45:48.358Z,3.27
2022-11-22T16:48:35.846Z,3.27
2022-11-22T16:51:28.513Z,3.35
2022-11-22T16:53:59.280Z,3.39
2022-11-22T16:56:30.318Z,3.43
2022-11-22T16:58:57.761Z,3.41
2022-11-22T17:01:26.930Z,3.40
2022-11-22T17:03:56.165Z,3.38
2022-11-22T17:06:25.747Z,3.35
2022-11-22T17:08:54.978Z,3.33
2022-11-22T17:11:28.032Z,3.33
2022-11-22T17:13:55.226Z,3.31
2022-11-22T17:16:22.444Z,3.30
2022-11-22T17:18:49.590Z,3.28
2022-11-22T17:21:26.213Z,3.28
2022-11-22T17:23:58.524Z,3.27
2022-11-22T17:26:26.146Z,3.24
2022-11-22T17:28:53.439Z,3.23
2022-11-22T17:31:22.021Z,3.19
2022-11-22T17:33:53.714Z,3.19
2022-11-22T17:36:30.739Z,3.12
2022-11-22T17:38:59.732Z,3.09
2022-11-22T17:41:27.219Z,3.04
2022-11-22T17:43:54.511Z,3.02
2022-11-22T17:46:21.824Z,2.99
2022-11-22T17:48:53.214Z,2.91
2022-11-22T17:51:20.976Z,2.86
2022-11-22T17:53:48.836Z,2.84
2022-11-22T17:56:16.349Z,2.79
2022-11-22T17:58:43.549Z,2.77
2022-11-22T18:01:16.037Z,2.77
2022-11-22T18:03:43.858Z,2.74
2022-11-22T18:06:11.842Z,2.68
2022-11-22T18:08:45.250Z,2.61
2022-11-22T18:11:14.452Z,2.56
2022-11-22T18:13:41.938Z,2.58
2022-11-22T18:16:12.230Z,2.58
2022-11-22T18:21:29.381Z,2.53
2022-11-22T18:24:00.405Z,2.49
2022-11-22T18:26:43.423Z,2.42
2022-11-22T18:29:41.553Z,2.44
2022-11-22T18:31:59.847Z,2.43
2022-11-22T18:34:27.722Z,2.40
2022-11-22T18:37:00.331Z,2.40
2022-11-22T18:39:34.667Z,2.33
2022-11-22T18:42:03.249Z,2.28
2022-11-22T18:44:30.520Z,2.30
2022-11-22T18:46:58.518Z,2.31
2022-11-22T18:49:25.707Z,2.31
2022-11-22T18:51:52.978Z,2.27
2022-11-22T18:54:21.890Z,2.26
2022-11-22T18:56:50.424Z,2.28
2022-11-22T18:59:17.912Z,2.30
2022-11-22T19:01:45.112Z,2.29
2022-11-22T19:04:14.254Z,2.28
2022-11-22T19:06:41.999Z,2.27
2022-11-22T19:09:09.358Z,2.25
2022-11-22T19:11:36.823Z,2.26
2022-11-22T19:14:04.367Z,2.27
2022-11-22T19:16:31.585Z,2.26
2022-11-22T19:18:59.297Z,2.27
2022-11-22T19:21:27.929Z,2.27
2022-11-22T19:23:56.325Z,2.25
2022-11-22T19:26:25.455Z,2.22
2022-11-22T19:28:55.604Z,2.19
2022-11-22T19:31:25.510Z,2.22
2022-11-22T19:33:52.612Z,2.22
2022-11-22T19:36:25.278Z,2.23
2022-11-22T19:38:55.111Z,2.22
2022-11-22T19:41:23.549Z,2.21
2022-11-22T19:43:51.564Z,2.24
2022-11-22T19:46:21.311Z,2.25
2022-11-22T19:48:56.343Z,2.25
2022-11-22T19:51:24.532Z,2.25
2022-11-22T19:53:58.858Z,2.24
2022-11-22T19:56:30.238Z,2.24
2022-11-22T19:58:59.363Z,2.22
2022-11-22T20:01:29.187Z,2.22
2022-11-22T20:03:58.921Z,2.22
2022-11-22T20:06:26.462Z,2.22
2022-11-22T20:08:53.620Z,2.22
2022-11-22T20:11:21.057Z,2.20
2022-11-22T20:13:50.041Z,2.17
2022-11-22T20:16:21.108Z,2.08
2022-11-22T20:18:52.585Z,2.02
2022-11-22T20:21:22.272Z,2.00
2022-11-22T20:23:50.663Z,2.01
2022-11-22T20:26:18.210Z,2.00
2022-11-22T20:28:46.200Z,2.00
2022-11-22T20:31:18.422Z,1.99
2022-11-22T20:33:47.906Z,1.96
2022-11-22T20:36:20.635Z,1.95
2022-11-22T20:38:49.047Z,1.95
2022-11-22T20:41:18.120Z,1.92
2022-11-22T20:43:45.753Z,1.86
2022-11-22T20:46:14.837Z,1.85
2022-11-22T20:48:44.071Z,1.90
2022-11-22T20:51:13.285Z,1.93
2022-11-22T20:53:41.123Z,1.99
2022-11-22T20:56:08.666Z,2.00
2022-11-22T20:58:35.861Z,2.06
2022-11-22T21:01:07.570Z,2.11
2022-11-22T21:03:35.061Z,2.14
2022-11-22T21:06:02.856Z,2.18
2022-11-22T21:08:30.467Z,2.15
2022-11-22T21:11:09.237Z,2.12
2022-11-22T21:13:36.281Z,2.09
2022-11-22T21:16:21.843Z,2.08
2022-11-22T21:18:51.516Z,2.05
2022-11-22T21:21:23.043Z,2.07
2022-11-22T21:23:52.293Z,2.10
2022-11-22T21:26:19.934Z,2.13
2022-11-22T21:28:47.063Z,2.18
2022-11-22T21:31:14.224Z,2.20
2022-11-22T21:33:42.685Z,2.23
2022-11-22T21:36:09.988Z,2.30
2022-11-22T21:38:40.100Z,2.32
2022-11-22T21:41:38.092Z,2.33
2022-11-22T21:43:57.093Z,2.29
2022-11-22T21:46:28.028Z,2.27
2022-11-22T21:48:55.844Z,2.26
2022-11-22T21:51:25.735Z,2.21
2022-11-22T21:53:56.672Z,2.20
2022-11-22T21:56:23.831Z,2.20
2022-11-22T21:58:50.986Z,2.18
2022-11-22T22:01:18.151Z,2.17
2022-11-22T22:03:45.248Z,2.16
2022-11-22T22:06:12.468Z,2.08
2022-11-22T22:08:40.893Z,2.08
2022-11-22T22:11:08.524Z,2.04
2022-11-22T22:13:36.104Z,2.01
2022-11-22T22:16:06.841Z,1.97
2022-11-22T22:18:36.469Z,1.91
2022-11-22T22:21:06.325Z,1.91
2022-11-22T22:23:34.540Z,1.91
2022-11-22T22:26:03.412Z,1.88
2022-11-22T22:28:32.034Z,1.82
2022-11-22T22:31:06.439Z,1.81
2022-11-22T22:33:34.772Z,1.74
2022-11-22T22:36:02.665Z,1.77
2022-11-22T22:38:30.845Z,1.82
2022-11-22T22:41:01.467Z,1.85
2022-11-22T22:43:38.216Z,1.87
2022-11-22T22:46:07.407Z,1.89
2022-11-22T22:48:34.903Z,1.88
2022-11-22T22:51:10.923Z,1.88
2022-11-22T22:53:38.178Z,1.91
2022-11-22T22:56:07.808Z,1.94
2022-11-22T22:58:35.157Z,1.90
2022-11-22T23:01:13.500Z,1.89
2022-11-22T23:03:40.845Z,1.87
2022-11-22T23:06:10.168Z,1.84
2022-11-22T23:08:38.429Z,1.82
2022-11-22T23:11:07.425Z,1.76
2022-11-22T23:13:36.016Z,1.75
2022-11-22T23:16:04.900Z,1.72
2022-11-22T23:18:35.204Z,1.65
2022-11-22T23:21:03.606Z,1.59
2022-11-22T23:23:31.048Z,1.55
2022-11-22T23:26:02.877Z,1.52
2022-11-22T23:28:30.337Z,1.47
2022-11-22T23:31:14.216Z,1.40
2022-11-22T23:33:42.876Z,1.33
2022-11-22T23:36:12.685Z,1.31
2022-11-22T23:38:40.326Z,1.31
2022-11-22T23:41:09.230Z,1.33
2022-11-22T23:43:36.259Z,1.33
2022-11-22T23:46:03.422Z,1.34
2022-11-22T23:48:30.554Z,1.35
2022-11-22T23:51:03.674Z,1.34
2022-11-22T23:53:30.729Z,1.30
2022-11-22T23:56:15.899Z,1.30
2022-11-22T23:58:45.130Z,1.30
